createdAt,value
2018-04-11T00:00:20.588Z,14.70
2018-04-11T00:02:48.047Z,15.90
2018-04-11T00:05:16.308Z,15.67
2018-04-11T00:07:43.764Z,16.13
2018-04-11T00:10:11.271Z,15.10
2018-04-11T00:12:38.743Z,15.20
2018-04-11T00:15:06.234Z,16.37
2018-04-11T00:17:33.687Z,15.70
2018-04-11T00:20:01.139Z,15.13
2018-04-11T00:22:28.624Z,14.70
2018-04-11T00:24:56.136Z,16.23
2018-04-11T00:27:23.593Z,16.30
2018-04-11T00:29:51.068Z,16.57
2018-04-11T00:32:18.771Z,17.70
2018-04-11T00:34:47.254Z,16.27
2018-04-11T00:37:14.707Z,18.23
2018-04-11T00:39:42.202Z,17.53
2018-04-11T00:42:09.666Z,18.80
2018-04-11T00:44:37.127Z,18.20
2018-04-11T00:47:04.607Z,19.43
2018-04-11T00:49:32.063Z,18.13
2018-04-11T00:51:59.546Z,19.80
2018-04-11T00:54:27.031Z,18.90
2018-04-11T00:56:55.253Z,18.10
2018-04-11T00:59:22.735Z,18.67
2018-04-11T01:01:50.195Z,17.17
2018-04-11T01:04:17.743Z,19.90
2018-04-11T01:06:46.226Z,20.67
2018-04-11T01:09:13.694Z,21.50
2018-04-11T01:11:41.172Z,20.07
2018-04-11T01:14:09.396Z,20.40
2018-04-11T01:16:36.875Z,21.63
2018-04-11T01:19:04.507Z,22.10
2018-04-11T01:21:32.000Z,22.07
2018-04-11T01:23:59.486Z,21.83
2018-04-11T01:26:27.699Z,25.33
2018-04-11T01:28:55.166Z,24.90
2018-04-11T01:31:22.699Z,22.63
2018-04-11T01:33:50.188Z,24.00
2018-04-11T01:36:17.635Z,23.30
2018-04-11T01:38:45.130Z,23.83
2018-04-11T01:41:12.584Z,23.87
2018-04-11T01:43:40.038Z,24.20
2018-04-11T01:46:07.510Z,23.13
2018-04-11T01:48:35.002Z,23.80
2018-04-11T01:51:02.647Z,23.57
2018-04-11T01:53:30.114Z,24.73
2018-04-11T01:55:57.572Z,25.30
2018-04-11T01:58:25.037Z,25.30
2018-04-11T02:00:52.587Z,25.73
2018-04-11T02:03:20.838Z,27.40
2018-04-11T02:05:48.315Z,28.93
2018-04-11T02:08:15.800Z,27.50
2018-04-11T02:10:44.109Z,26.47
2018-04-11T02:13:11.571Z,28.60
2018-04-11T02:15:39.034Z,27.60
2018-04-11T02:18:06.524Z,27.70
2018-04-11T02:20:34.139Z,29.60
2018-04-11T02:23:01.603Z,27.83
2018-04-11T02:25:29.073Z,27.30
2018-04-11T02:27:56.535Z,27.93
2018-04-11T02:30:24.050Z,27.43
2018-04-11T02:32:52.267Z,25.60
2018-04-11T02:35:19.835Z,26.33
2018-04-11T02:37:47.294Z,28.13
2018-04-11T02:40:14.760Z,26.80
2018-04-11T02:42:42.235Z,25.47
2018-04-11T02:45:09.677Z,23.07
2018-04-11T02:47:37.154Z,22.80
2018-04-11T02:50:04.604Z,21.90
2018-04-11T02:52:32.869Z,22.90
2018-04-11T02:55:00.324Z,24.30
2018-04-11T02:57:27.858Z,23.20
2018-04-11T02:59:55.373Z,25.30
2018-04-11T03:02:22.852Z,24.00
2018-04-11T03:04:50.431Z,23.90
2018-04-11T03:07:17.891Z,23.80
2018-04-11T03:09:45.376Z,25.37
2018-04-11T03:12:12.830Z,26.27
2018-04-11T03:14:40.295Z,25.67
2018-04-11T03:17:07.771Z,27.73
2018-04-11T03:19:35.244Z,28.43
2018-04-11T03:22:03.478Z,28.37
2018-04-11T03:24:30.955Z,29.40
2018-04-11T03:26:58.430Z,27.97
2018-04-11T03:29:26.702Z,29.03
2018-04-11T03:31:54.183Z,30.80
2018-04-11T03:34:22.588Z,28.90
2018-04-11T03:36:50.057Z,30.47
2018-04-11T03:39:17.530Z,29.70
2018-04-11T03:41:44.986Z,30.57
2018-04-11T03:44:12.522Z,28.13
2018-04-11T03:46:40.018Z,28.07
2018-04-11T03:49:07.499Z,22.13
2018-04-11T03:51:34.956Z,20.33
2018-04-11T03:54:02.436Z,20.73
2018-04-11T03:56:29.910Z,22.27
2018-04-11T03:58:57.383Z,25.80
2018-04-11T04:01:24.839Z,25.97
2018-04-11T04:03:52.315Z,26.40
2018-04-11T04:06:20.555Z,25.07
2018-04-11T04:08:48.038Z,24.40
2018-04-11T04:11:15.510Z,24.23
2018-04-11T04:13:54.799Z,23.10
2018-04-11T04:16:34.140Z,23.50
2018-04-11T04:19:13.495Z,25.80
2018-04-11T04:21:41.039Z,23.53
2018-04-11T04:24:10.263Z,25.73
2018-04-11T04:26:37.742Z,27.80
2018-04-11T04:29:05.223Z,26.73
2018-04-11T04:31:32.707Z,23.83
2018-04-11T04:34:00.978Z,26.70
2018-04-11T04:36:29.194Z,23.93
2018-04-11T04:38:56.647Z,27.60
2018-04-11T04:41:24.131Z,26.07
2018-04-11T04:43:51.583Z,25.87
2018-04-11T04:46:19.048Z,28.17
2018-04-11T04:48:46.532Z,29.27
2018-04-11T04:51:14.850Z,27.97
2018-04-11T04:53:43.060Z,28.73
2018-04-11T04:56:10.515Z,27.83
2018-04-11T04:58:37.997Z,29.73
2018-04-11T05:01:05.456Z,30.33
2018-04-11T05:03:32.927Z,31.40
2018-04-11T05:06:01.151Z,30.63
2018-04-11T05:08:28.616Z,30.70
2018-04-11T05:10:56.090Z,30.87
2018-04-11T05:13:23.550Z,31.17
2018-04-11T05:15:51.018Z,32.50
2018-04-11T05:18:18.491Z,32.47
2018-04-11T05:20:46.781Z,32.20
2018-04-11T05:23:15.036Z,33.10
2018-04-11T05:25:42.486Z,31.77
2018-04-11T05:28:09.996Z,29.97
2018-04-11T05:30:37.531Z,30.20
2018-04-11T05:33:04.991Z,28.73
2018-04-11T05:35:33.250Z,29.47
2018-04-11T05:38:01.539Z,29.00
2018-04-11T05:40:29.787Z,29.00
2018-04-11T05:42:57.330Z,29.50
2018-04-11T05:45:24.799Z,30.33
2018-04-11T05:47:52.255Z,33.20
2018-04-11T05:50:19.755Z,34.37
2018-04-11T05:52:47.239Z,32.40
2018-04-11T05:55:14.715Z,32.40
2018-04-11T05:57:42.183Z,32.17
2018-04-11T06:00:09.666Z,31.03
2018-04-11T06:02:37.125Z,31.20
2018-04-11T06:05:04.640Z,33.23
2018-04-11T06:07:32.123Z,32.20
2018-04-11T06:09:59.583Z,34.03
2018-04-11T06:12:27.066Z,32.47
2018-04-11T06:14:55.301Z,33.47
2018-04-11T06:17:22.751Z,32.77
2018-04-11T06:19:50.324Z,34.03
2018-04-11T06:22:17.782Z,29.37
2018-04-11T06:24:45.487Z,31.87
2018-04-11T06:27:12.961Z,32.70
2018-04-11T06:29:40.434Z,29.17
2018-04-11T06:32:07.920Z,35.40
2018-04-11T06:34:36.165Z,30.80
2018-04-11T06:37:03.626Z,32.60
2018-04-11T06:39:31.103Z,32.40
2018-04-11T06:41:58.624Z,32.77
2018-04-11T06:44:26.867Z,35.33
2018-04-11T06:46:54.335Z,33.90
2018-04-11T06:49:21.795Z,31.87
2018-04-11T06:51:49.278Z,31.07
2018-04-11T06:54:17.487Z,31.90
2018-04-11T06:56:44.967Z,31.83
2018-04-11T06:59:13.205Z,33.47
2018-04-11T07:01:40.691Z,33.23
2018-04-11T07:04:08.141Z,34.60
2018-04-11T07:06:35.600Z,32.70
2018-04-11T07:09:03.247Z,30.70
2018-04-11T07:11:30.767Z,29.90
2018-04-11T07:13:58.990Z,31.73
2018-04-11T07:16:26.472Z,31.83
2018-04-11T07:18:53.928Z,30.70
2018-04-11T07:21:21.387Z,29.33
2018-04-11T07:23:48.862Z,31.30
2018-04-11T07:26:16.355Z,29.77
2018-04-11T07:28:43.807Z,30.07
2018-04-11T07:31:12.056Z,31.20
2018-04-11T07:33:39.552Z,30.60
2018-04-11T07:36:07.011Z,29.60
2018-04-11T07:38:34.463Z,29.40
2018-04-11T07:41:01.988Z,27.97
2018-04-11T07:43:29.502Z,28.40
2018-04-11T07:45:56.989Z,29.33
2018-04-11T07:48:24.474Z,27.77
2018-04-11T07:50:51.965Z,28.03
2018-04-11T07:53:19.423Z,29.00
2018-04-11T07:55:46.911Z,25.97
2018-04-11T07:58:14.371Z,25.93
2018-04-11T08:00:41.861Z,27.27
2018-04-11T08:03:09.496Z,26.40
2018-04-11T08:05:37.651Z,25.27
2018-04-11T08:08:05.134Z,26.70
2018-04-11T08:10:32.655Z,26.57
2018-04-11T08:13:00.117Z,29.70
2018-04-11T08:15:27.583Z,28.70
2018-04-11T08:17:55.072Z,25.17
2018-04-11T08:20:22.527Z,27.17
2018-04-11T08:22:49.988Z,26.53
2018-04-11T08:25:17.489Z,26.87
2018-04-11T08:27:44.965Z,26.80
2018-04-11T08:30:12.516Z,26.00
2018-04-11T08:32:39.979Z,27.30
2018-04-11T08:35:07.445Z,26.10
2018-04-11T08:37:34.919Z,27.80
2018-04-11T08:40:02.375Z,28.90
2018-04-11T08:42:29.868Z,26.87
2018-04-11T08:44:57.379Z,27.90
2018-04-11T08:47:24.846Z,28.43
2018-04-11T08:49:52.307Z,26.23
2018-04-11T08:52:19.763Z,28.10
2018-04-11T08:54:47.239Z,27.80
2018-04-11T08:57:14.719Z,25.77
2018-04-11T08:59:42.175Z,27.77
2018-04-11T09:02:09.622Z,28.97
2018-04-11T09:04:37.146Z,28.53
2018-04-11T09:07:04.596Z,29.33
2018-04-11T09:09:32.075Z,29.87
2018-04-11T09:11:59.528Z,29.70
2018-04-11T09:14:27.080Z,25.77
2018-04-11T09:16:54.581Z,27.87
2018-04-11T09:19:22.031Z,28.27
2018-04-11T09:21:49.483Z,29.77
2018-04-11T09:24:16.968Z,26.03
2018-04-11T09:26:44.424Z,29.67
2018-04-11T09:29:11.882Z,29.37
2018-04-11T09:31:39.375Z,26.83
2018-04-11T09:34:06.860Z,30.77
2018-04-11T09:36:34.331Z,29.23
2018-04-11T09:39:01.813Z,28.60
2018-04-11T09:41:29.291Z,30.20
2018-04-11T09:43:56.759Z,30.43
2018-04-11T09:46:24.210Z,31.73
2018-04-11T09:48:52.455Z,34.37
2018-04-11T09:51:20.049Z,34.37
2018-04-11T09:53:48.266Z,34.97
2018-04-11T09:56:15.761Z,35.40
2018-04-11T09:58:43.252Z,40.00
2018-04-11T10:01:17.157Z,35.77
2018-04-11T10:03:45.547Z,38.57
2018-04-11T10:06:13.025Z,38.30
2018-04-11T10:08:40.487Z,38.67
2018-04-11T10:11:07.969Z,36.77
2018-04-11T10:13:35.442Z,36.90
2018-04-11T10:16:02.916Z,34.03
2018-04-11T10:18:31.139Z,36.50
2018-04-11T10:20:58.618Z,36.23
2018-04-11T10:23:26.119Z,36.00
2018-04-11T10:25:53.565Z,36.67
2018-04-11T10:28:21.793Z,36.50
2018-04-11T10:30:50.248Z,35.50
2018-04-11T10:33:17.707Z,38.47
2018-04-11T10:35:45.174Z,38.20
2018-04-11T10:38:12.617Z,38.40
2018-04-11T10:40:40.104Z,39.07
2018-04-11T10:43:07.587Z,43.57
2018-04-11T10:45:35.084Z,43.43
2018-04-11T10:48:03.388Z,38.10
2018-04-11T10:50:30.840Z,39.60
2018-04-11T10:52:58.328Z,40.30
2018-04-11T10:55:25.803Z,44.33
2018-04-11T10:57:53.280Z,42.10
2018-04-11T11:00:21.579Z,41.10
2018-04-11T11:02:49.063Z,42.80
2018-04-11T11:05:16.519Z,47.37
2018-04-11T11:07:44.002Z,43.70
2018-04-11T11:10:11.480Z,46.13
2018-04-11T11:12:38.942Z,46.47
2018-04-11T11:15:06.408Z,41.37
2018-04-11T11:17:34.653Z,46.63
2018-04-11T11:20:02.116Z,41.73
2018-04-11T11:22:29.575Z,41.60
2018-04-11T11:24:57.051Z,43.47
2018-04-11T11:27:24.507Z,41.17
2018-04-11T11:29:52.113Z,41.37
2018-04-11T11:32:19.590Z,36.20
2018-04-11T11:34:47.068Z,43.50
2018-04-11T11:37:14.527Z,42.10
2018-04-11T11:39:42.099Z,42.60
2018-04-11T11:42:09.564Z,43.13
2018-04-11T11:44:37.020Z,44.83
2018-04-11T11:47:04.499Z,47.03
2018-04-11T11:49:32.712Z,42.07
2018-04-11T11:52:00.202Z,41.33
2018-04-11T11:54:27.757Z,45.23
2018-04-11T11:56:55.214Z,44.73
2018-04-11T11:59:22.662Z,46.27
2018-04-11T12:01:50.148Z,40.37
2018-04-11T12:04:17.627Z,43.03
2018-04-11T12:06:45.877Z,44.60
2018-04-11T12:09:13.358Z,46.37
2018-04-11T12:11:40.840Z,43.83
2018-04-11T12:14:08.295Z,44.60
2018-04-11T12:16:35.819Z,47.00
2018-04-11T12:19:03.275Z,41.73
2018-04-11T12:21:30.752Z,42.03
2018-04-11T12:23:59.161Z,45.37
2018-04-11T12:26:26.658Z,42.10
2018-04-11T12:28:54.120Z,43.20
2018-04-11T12:31:21.740Z,41.07
2018-04-11T12:33:49.220Z,45.13
2018-04-11T12:36:16.683Z,43.57
2018-04-11T12:38:44.180Z,42.27
2018-04-11T12:41:12.404Z,43.67
2018-04-11T12:43:39.858Z,45.70
2018-04-11T12:46:07.357Z,45.07
2018-04-11T12:48:34.806Z,45.00
2018-04-11T12:51:02.294Z,47.87
2018-04-11T12:53:30.535Z,42.07
2018-04-11T12:55:58.003Z,45.37
2018-04-11T12:58:25.636Z,41.80
2018-04-11T13:00:53.125Z,44.13
2018-04-11T13:03:20.615Z,43.87
2018-04-11T13:05:48.857Z,42.87
2018-04-11T13:08:16.307Z,40.20
2018-04-11T13:10:43.792Z,43.30
2018-04-11T13:13:11.267Z,43.83
2018-04-11T13:15:39.495Z,41.50
2018-04-11T13:18:06.959Z,43.90
2018-04-11T13:20:34.657Z,43.53
2018-04-11T13:23:03.258Z,39.17
2018-04-11T13:25:31.045Z,42.27
2018-04-11T13:27:58.503Z,40.63
2018-04-11T13:30:25.986Z,41.13
2018-04-11T13:32:53.997Z,43.40
2018-04-11T13:35:22.242Z,39.77
2018-04-11T13:37:49.772Z,40.00
2018-04-11T13:40:17.295Z,42.27
2018-04-11T13:42:44.776Z,42.70
2018-04-11T13:45:12.256Z,42.60
2018-04-11T13:47:39.735Z,42.30
2018-04-11T13:50:07.239Z,40.73
2018-04-11T13:52:35.459Z,35.00
2018-04-11T13:55:02.932Z,42.00
2018-04-11T13:57:30.445Z,41.07
2018-04-11T13:59:57.896Z,37.57
2018-04-11T14:02:25.527Z,40.43
2018-04-11T14:04:52.930Z,38.73
2018-04-11T14:07:20.390Z,39.60
2018-04-11T14:09:48.352Z,39.10
2018-04-11T14:12:15.826Z,38.37
2018-04-11T14:14:43.413Z,41.07
2018-04-11T14:17:10.864Z,41.00
2018-04-11T14:19:38.346Z,41.07
2018-04-11T14:22:05.811Z,40.27
2018-04-11T14:24:34.053Z,40.67
2018-04-11T14:27:01.709Z,39.30
2018-04-11T14:29:29.159Z,38.50
2018-04-11T14:31:56.637Z,39.43
2018-04-11T14:34:24.095Z,41.87
2018-04-11T14:36:51.624Z,41.63
2018-04-11T14:39:19.084Z,41.07
2018-04-11T14:41:46.565Z,40.80
2018-04-11T14:44:14.067Z,40.50
2018-04-11T14:46:41.558Z,39.73
2018-04-11T14:49:09.036Z,40.37
2018-04-11T14:51:36.511Z,38.93
2018-04-11T14:54:03.979Z,41.70
2018-04-11T14:56:31.486Z,41.97
2018-04-11T14:58:58.931Z,43.37
2018-04-11T15:01:26.391Z,39.30
2018-04-11T15:03:53.872Z,35.27
2018-04-11T15:06:21.351Z,36.57
2018-04-11T15:08:48.947Z,37.60
2018-04-11T15:11:17.335Z,32.37
2018-04-11T15:13:44.782Z,34.53
2018-04-11T15:16:13.034Z,33.30
2018-04-11T15:18:40.487Z,33.30
2018-04-11T15:21:07.967Z,36.33
2018-04-11T15:23:35.410Z,38.30
2018-04-11T15:26:02.929Z,38.80
2018-04-11T15:28:30.409Z,39.47
2018-04-11T15:30:58.195Z,42.63
2018-04-11T15:33:25.670Z,47.20
2018-04-11T15:35:53.127Z,46.13
2018-04-11T15:38:20.607Z,32.20
2018-04-11T15:40:48.173Z,37.07
2018-04-11T15:43:15.624Z,42.87
2018-04-11T15:45:43.898Z,45.17
2018-04-11T15:48:12.121Z,44.73
2018-04-11T15:50:39.592Z,45.70
2018-04-11T15:53:07.067Z,45.67
2018-04-11T15:55:34.539Z,46.93
2018-04-11T15:58:02.755Z,44.87
2018-04-11T16:00:30.227Z,42.33
2018-04-11T16:02:57.695Z,46.23
2018-04-11T16:05:25.210Z,46.10
2018-04-11T16:07:52.684Z,45.47
2018-04-11T16:10:20.155Z,43.37
2018-04-11T16:12:47.640Z,44.37
2018-04-11T16:15:15.115Z,43.90
2018-04-11T16:17:42.648Z,44.97
2018-04-11T16:20:10.153Z,42.97
2018-04-11T16:22:38.540Z,46.50
2018-04-11T16:25:06.221Z,47.30
2018-04-11T16:27:33.677Z,48.50
2018-04-11T16:30:01.169Z,51.30
2018-04-11T16:32:28.652Z,61.80
2018-04-11T16:34:56.115Z,46.33
2018-04-11T16:37:24.355Z,45.70
2018-04-11T16:39:51.875Z,47.23
2018-04-11T16:42:19.500Z,48.87
2018-04-11T16:44:47.775Z,49.57
2018-04-11T16:47:15.279Z,54.03
2018-04-11T16:49:42.757Z,50.00
2018-04-11T16:52:10.205Z,54.83
2018-04-11T16:54:37.799Z,51.80
2018-04-11T16:57:06.268Z,53.20
2018-04-11T16:59:34.729Z,52.70
2018-04-11T17:02:02.222Z,53.50
2018-04-11T17:04:29.844Z,51.00
2018-04-11T17:06:57.477Z,51.37
2018-04-11T17:09:26.625Z,51.10
2018-04-11T17:11:54.175Z,47.70
2018-04-11T17:14:22.523Z,50.20
2018-04-11T17:16:50.081Z,53.10
2018-04-11T17:19:17.635Z,52.53
2018-04-11T17:21:57.834Z,48.90
2018-04-11T17:24:37.155Z,47.77
2018-04-11T17:27:17.172Z,45.70
2018-04-11T17:29:56.578Z,44.10
2018-04-11T17:32:24.866Z,39.60
2018-04-11T17:34:52.359Z,41.70
2018-04-11T17:37:20.044Z,41.10
2018-04-11T17:39:47.845Z,39.53
2018-04-11T17:42:15.438Z,35.67
2018-04-11T17:44:43.066Z,36.30
2018-04-11T17:47:10.653Z,36.57
2018-04-11T17:49:38.163Z,34.37
2018-04-11T17:52:05.729Z,35.97
2018-04-11T17:54:33.412Z,32.17
2018-04-11T17:57:00.931Z,30.50
2018-04-11T17:59:28.386Z,32.13
2018-04-11T18:01:56.040Z,32.67
2018-04-11T18:04:23.549Z,31.17
2018-04-11T18:06:51.056Z,33.00
2018-04-11T18:09:19.330Z,32.50
2018-04-11T18:11:46.784Z,31.90
2018-04-11T18:14:14.254Z,33.50
2018-04-11T18:16:42.475Z,34.30
2018-04-11T18:19:09.967Z,33.00
2018-04-11T18:21:37.541Z,33.73
2018-04-11T18:24:05.769Z,35.30
2018-04-11T18:26:34.015Z,32.90
2018-04-11T18:29:01.527Z,35.97
2018-04-11T18:31:28.987Z,35.10
2018-04-11T18:33:56.470Z,38.40
2018-04-11T18:36:24.719Z,37.20
2018-04-11T18:38:52.203Z,36.17
2018-04-11T18:41:20.436Z,36.43
2018-04-11T18:43:47.891Z,34.67
2018-04-11T18:46:15.373Z,39.83
2018-04-11T18:48:42.857Z,34.83
2018-04-11T18:51:11.128Z,35.93
2018-04-11T18:53:39.543Z,35.63
2018-04-11T18:56:07.022Z,38.67
2018-04-11T18:58:34.492Z,36.57
2018-04-11T19:01:03.009Z,38.40
2018-04-11T19:03:30.867Z,36.47
2018-04-11T19:05:59.098Z,32.20
2018-04-11T19:08:26.576Z,36.10
2018-04-11T19:10:54.091Z,33.23
2018-04-11T19:13:21.838Z,35.73
2018-04-11T19:15:49.269Z,36.60
2018-04-11T19:18:16.849Z,35.60
2018-04-11T19:20:44.489Z,34.67
2018-04-11T19:23:11.996Z,34.60
2018-04-11T19:25:39.711Z,33.10
2018-04-11T19:28:07.235Z,36.07
2018-04-11T19:30:34.735Z,36.77
2018-04-11T19:33:02.387Z,34.77
2018-04-11T19:35:29.830Z,33.27
2018-04-11T19:37:57.383Z,35.40
2018-04-11T19:40:24.854Z,35.90
2018-04-11T19:42:52.441Z,36.27
2018-04-11T19:45:19.983Z,35.53
2018-04-11T19:47:47.478Z,36.90
2018-04-11T19:50:16.002Z,38.47
2018-04-11T19:52:43.496Z,36.60
2018-04-11T19:55:10.964Z,37.13
2018-04-11T19:57:38.476Z,36.80
2018-04-11T20:00:06.104Z,36.90
2018-04-11T20:02:33.629Z,37.40
2018-04-11T20:05:01.111Z,37.87
2018-04-11T20:07:29.460Z,37.17
2018-04-11T20:09:57.329Z,38.13
2018-04-11T20:12:24.839Z,37.20
2018-04-11T20:14:52.438Z,41.30
2018-04-11T20:17:19.934Z,43.63
2018-04-11T20:19:47.433Z,41.90
2018-04-11T20:22:15.847Z,42.30
2018-04-11T20:24:43.335Z,42.53
2018-04-11T20:27:10.788Z,40.43
2018-04-11T20:29:38.253Z,40.40
2018-04-11T20:32:06.511Z,38.03
2018-04-11T20:34:34.731Z,38.97
2018-04-11T20:37:02.210Z,36.17
2018-04-11T20:39:29.702Z,38.47
2018-04-11T20:41:57.192Z,38.90
2018-04-11T20:44:25.418Z,37.17
2018-04-11T20:46:53.646Z,35.07
2018-04-11T20:49:21.893Z,36.67
2018-04-11T20:51:49.367Z,35.73
2018-04-11T20:54:16.926Z,36.77
2018-04-11T20:56:44.400Z,37.27
2018-04-11T20:59:12.708Z,38.77
2018-04-11T21:01:40.186Z,36.97
2018-04-11T21:04:07.634Z,37.20
2018-04-11T21:06:35.179Z,37.40
2018-04-11T21:09:02.663Z,38.97
2018-04-11T21:11:30.162Z,36.83
2018-04-11T21:13:58.382Z,38.30
2018-04-11T21:16:25.859Z,37.73
2018-04-11T21:18:53.327Z,40.20
2018-04-11T21:21:20.797Z,38.60
2018-04-11T21:23:48.262Z,35.90
2018-04-11T21:26:15.751Z,35.90
2018-04-11T21:28:43.223Z,35.73
2018-04-11T21:31:10.782Z,35.47
2018-04-11T21:33:38.347Z,37.17
2018-04-11T21:36:05.827Z,33.17
2018-04-11T21:38:33.282Z,34.17
2018-04-11T21:41:00.763Z,38.07
2018-04-11T21:43:28.247Z,37.20
2018-04-11T21:45:55.703Z,40.30
2018-04-11T21:48:23.170Z,40.87
2018-04-11T21:50:50.659Z,44.60
2018-04-11T21:53:18.149Z,45.37
2018-04-11T21:55:45.592Z,45.20
2018-04-11T21:58:13.061Z,40.60
2018-04-11T22:00:40.519Z,46.43
2018-04-11T22:03:07.987Z,47.10
2018-04-11T22:05:35.459Z,49.07
2018-04-11T22:08:03.730Z,50.90
2018-04-11T22:10:31.235Z,52.67
2018-04-11T22:12:58.710Z,51.17
2018-04-11T22:15:26.179Z,52.30
2018-04-11T22:17:53.683Z,55.37
2018-04-11T22:20:21.911Z,53.63
2018-04-11T22:22:49.400Z,53.00
2018-04-11T22:25:16.871Z,56.07
2018-04-11T22:27:44.351Z,53.70
2018-04-11T22:30:11.838Z,54.73
2018-04-11T22:32:39.310Z,57.10
2018-04-11T22:35:06.763Z,57.70
2018-04-11T22:37:34.246Z,55.27
2018-04-11T22:40:01.848Z,55.00
2018-04-11T22:42:29.332Z,53.33
2018-04-11T22:44:56.795Z,55.37
2018-04-11T22:47:25.050Z,57.07
2018-04-11T22:49:52.537Z,54.97
2018-04-11T22:52:19.995Z,55.80
2018-04-11T22:54:47.487Z,56.00
2018-04-11T22:57:15.728Z,53.77
2018-04-11T22:59:43.219Z,56.87
2018-04-11T23:02:10.720Z,57.50
2018-04-11T23:04:38.219Z,57.67
2018-04-11T23:07:05.709Z,60.00
2018-04-11T23:09:33.159Z,55.37
2018-04-11T23:12:01.404Z,58.27
2018-04-11T23:14:28.891Z,57.57
2018-04-11T23:16:56.370Z,56.27
2018-04-11T23:19:23.844Z,55.63
2018-04-11T23:21:51.316Z,61.10
2018-04-11T23:24:18.800Z,58.30
2018-04-11T23:26:46.267Z,58.33
2018-04-11T23:29:13.759Z,57.30
2018-04-11T23:31:41.219Z,58.97
2018-04-11T23:34:09.492Z,57.03
2018-04-11T23:36:37.738Z,56.97
2018-04-11T23:39:05.201Z,57.27
2018-04-11T23:41:32.692Z,54.67
2018-04-11T23:44:00.151Z,59.83
2018-04-11T23:46:27.605Z,59.60
2018-04-11T23:48:55.184Z,53.60
2018-04-11T23:51:22.660Z,55.40
2018-04-11T23:53:50.147Z,52.80
2018-04-11T23:56:18.361Z,51.97
2018-04-11T23:58:45.847Z,52.20
